Aviation Digital Data Service (ADDS)

Output produced by METARs form (0037 UTC 18 November 2017)
found at http://aviationweather.gov/adds/metars/
 
KJST 172349Z 1800/1824 18005KT P6SM BKN200 
     FM180600 18008KT P6SM OVC100 
     FM181000 18010KT P6SM -RA OVC050 WS020/23040KT 
     FM181500 18010KT 3SM RA OVC010 WS020/24045KT 
     FM182000 19010G20KT 4SM -RA OVC010